sensor_id;sensor_type;location;lat;lon;timestamp;temperature;humidity
14093;DHT22;7123;49.468;10.992;2023-07-31T00:00:00;17.50;99.90
14093;DHT22;7123;49.468;10.992;2023-07-31T00:02:27;17.60;99.90
14093;DHT22;7123;49.468;10.992;2023-07-31T00:04:54;17.60;99.90
14093;DHT22;7123;49.468;10.992;2023-07-31T00:07:20;17.60;99.90
14093;DHT22;7123;49.468;10.992;2023-07-31T00:09:47;17.50;99.90
14093;DHT22;7123;49.468;10.992;2023-07-31T00:12:14;17.60;99.90
14093;DHT22;7123;49.468;10.992;2023-07-31T00:14:44;17.70;99.90
14093;DHT22;7123;49.468;10.992;2023-07-31T00:17:11;17.60;99.90
14093;DHT22;7123;49.468;10.992;2023-07-31T00:19:38;17.70;99.90
14093;DHT22;7123;49.468;10.992;2023-07-31T00:22:05;17.70;99.90
14093;DHT22;7123;49.468;10.992;2023-07-31T00:24:32;17.60;99.90
14093;DHT22;7123;49.468;10.992;2023-07-31T00:26:59;17.60;99.90
14093;DHT22;7123;49.468;10.992;2023-07-31T00:29:25;17.60;99.90
14093;DHT22;7123;49.468;10.992;2023-07-31T00:31:52;17.50;99.90
14093;DHT22;7123;49.468;10.992;2023-07-31T00:34:19;17.50;99.90
14093;DHT22;7123;49.468;10.992;2023-07-31T00:36:45;17.50;99.90
14093;DHT22;7123;49.468;10.992;2023-07-31T00:39:12;17.50;99.90
14093;DHT22;7123;49.468;10.992;2023-07-31T00:41:39;17.40;99.90
14093;DHT22;7123;49.468;10.992;2023-07-31T00:44:06;17.40;99.90
14093;DHT22;7123;49.468;10.992;2023-07-31T00:46:32;17.30;99.90
14093;DHT22;7123;49.468;10.992;2023-07-31T00:48:59;17.40;99.90
14093;DHT22;7123;49.468;10.992;2023-07-31T00:51:26;17.40;99.90
14093;DHT22;7123;49.468;10.992;2023-07-31T00:53:53;17.40;99.90
14093;DHT22;7123;49.468;10.992;2023-07-31T00:56:21;17.40;99.90
14093;DHT22;7123;49.468;10.992;2023-07-31T00:58:48;17.50;99.90
14093;DHT22;7123;49.468;10.992;2023-07-31T01:01:15;17.40;99.90
14093;DHT22;7123;49.468;10.992;2023-07-31T01:03:42;17.50;99.90
14093;DHT22;7123;49.468;10.992;2023-07-31T01:06:47;17.50;99.90
14093;DHT22;7123;49.468;10.992;2023-07-31T01:12:00;17.30;99.90
14093;DHT22;7123;49.468;10.992;2023-07-31T01:14:27;17.40;99.90
14093;DHT22;7123;49.468;10.992;2023-07-31T01:16:54;17.30;99.90
14093;DHT22;7123;49.468;10.992;2023-07-31T01:19:23;17.40;99.90
14093;DHT22;7123;49.468;10.992;2023-07-31T01:22:23;17.40;99.90
14093;DHT22;7123;49.468;10.992;2023-07-31T01:27:58;17.40;99.90
14093;DHT22;7123;49.468;10.992;2023-07-31T01:30:28;17.40;99.90
14093;DHT22;7123;49.468;10.992;2023-07-31T01:33:01;17.40;99.90
14093;DHT22;7123;49.468;10.992;2023-07-31T01:35:34;17.40;99.90
14093;DHT22;7123;49.468;10.992;2023-07-31T01:38:01;17.40;99.90
14093;DHT22;7123;49.468;10.992;2023-07-31T01:40:28;17.40;99.90
14093;DHT22;7123;49.468;10.992;2023-07-31T01:42:54;17.50;99.90
14093;DHT22;7123;49.468;10.992;2023-07-31T01:45:21;17.50;99.90
14093;DHT22;7123;49.468;10.992;2023-07-31T01:47:48;17.50;99.90
14093;DHT22;7123;49.468;10.992;2023-07-31T01:50:15;17.50;99.90
14093;DHT22;7123;49.468;10.992;2023-07-31T01:52:41;17.50;99.90
14093;DHT22;7123;49.468;10.992;2023-07-31T01:55:08;17.50;99.90
14093;DHT22;7123;49.468;10.992;2023-07-31T01:57:36;17.50;99.90
14093;DHT22;7123;49.468;10.992;2023-07-31T02:00:04;17.50;99.90
14093;DHT22;7123;49.468;10.992;2023-07-31T02:02:31;17.50;99.90
14093;DHT22;7123;49.468;10.992;2023-07-31T02:04:58;17.60;99.90
14093;DHT22;7123;49.468;10.992;2023-07-31T02:07:25;17.50;99.90
14093;DHT22;7123;49.468;10.992;2023-07-31T02:09:52;17.50;99.90
14093;DHT22;7123;49.468;10.992;2023-07-31T02:12:18;17.50;99.90
14093;DHT22;7123;49.468;10.992;2023-07-31T02:14:45;17.50;99.90
14093;DHT22;7123;49.468;10.992;2023-07-31T02:17:12;17.60;99.90
14093;DHT22;7123;49.468;10.992;2023-07-31T02:19:38;17.60;99.90
14093;DHT22;7123;49.468;10.992;2023-07-31T02:22:05;17.70;99.90
14093;DHT22;7123;49.468;10.992;2023-07-31T02:24:32;17.80;99.90
14093;DHT22;7123;49.468;10.992;2023-07-31T02:26:59;18.00;99.90
14093;DHT22;7123;49.468;10.992;2023-07-31T02:29:25;18.10;99.90
14093;DHT22;7123;49.468;10.992;2023-07-31T02:31:52;18.20;99.90
14093;DHT22;7123;49.468;10.992;2023-07-31T02:34:19;18.30;99.90
14093;DHT22;7123;49.468;10.992;2023-07-31T02:36:46;18.50;99.90
14093;DHT22;7123;49.468;10.992;2023-07-31T02:39:13;18.60;99.90
14093;DHT22;7123;49.468;10.992;2023-07-31T02:41:39;18.70;99.90
14093;DHT22;7123;49.468;10.992;2023-07-31T02:44:06;18.80;99.90
14093;DHT22;7123;49.468;10.992;2023-07-31T02:46:33;18.70;99.90
14093;DHT22;7123;49.468;10.992;2023-07-31T02:48:59;18.80;99.90
14093;DHT22;7123;49.468;10.992;2023-07-31T02:51:26;18.80;99.90
14093;DHT22;7123;49.468;10.992;2023-07-31T02:53:53;18.70;99.90
14093;DHT22;7123;49.468;10.992;2023-07-31T02:56:20;18.70;99.90
14093;DHT22;7123;49.468;10.992;2023-07-31T02:58:46;18.80;99.90
14093;DHT22;7123;49.468;10.992;2023-07-31T03:01:13;18.70;99.90
14093;DHT22;7123;49.468;10.992;2023-07-31T03:03:41;18.80;99.90
14093;DHT22;7123;49.468;10.992;2023-07-31T03:06:09;18.80;99.90
14093;DHT22;7123;49.468;10.992;2023-07-31T03:08:35;18.90;99.90
14093;DHT22;7123;49.468;10.992;2023-07-31T03:11:02;18.90;99.90
14093;DHT22;7123;49.468;10.992;2023-07-31T03:13:29;19.00;99.90
14093;DHT22;7123;49.468;10.992;2023-07-31T03:15:56;19.00;99.90
14093;DHT22;7123;49.468;10.992;2023-07-31T03:18:22;19.00;99.90
14093;DHT22;7123;49.468;10.992;2023-07-31T03:20:49;18.90;99.90
14093;DHT22;7123;49.468;10.992;2023-07-31T03:23:16;18.80;99.90
14093;DHT22;7123;49.468;10.992;2023-07-31T03:25:56;18.90;99.90
14093;DHT22;7123;49.468;10.992;2023-07-31T03:28:23;19.00;99.90
14093;DHT22;7123;49.468;10.992;2023-07-31T03:30:51;18.90;99.90
14093;DHT22;7123;49.468;10.992;2023-07-31T03:33:18;19.00;99.90
14093;DHT22;7123;49.468;10.992;2023-07-31T03:35:45;19.00;99.90
14093;DHT22;7123;49.468;10.992;2023-07-31T03:38:12;19.00;99.90
14093;DHT22;7123;49.468;10.992;2023-07-31T03:40:39;19.00;99.90
14093;DHT22;7123;49.468;10.992;2023-07-31T03:43:06;18.90;99.90
14093;DHT22;7123;49.468;10.992;2023-07-31T03:45:33;18.90;99.90
14093;DHT22;7123;49.468;10.992;2023-07-31T03:48:00;19.00;99.90
14093;DHT22;7123;49.468;10.992;2023-07-31T03:50:27;19.00;99.90
14093;DHT22;7123;49.468;10.992;2023-07-31T03:52:54;18.90;99.90
14093;DHT22;7123;49.468;10.992;2023-07-31T03:55:20;18.90;99.90
14093;DHT22;7123;49.468;10.992;2023-07-31T03:57:48;18.80;99.90
14093;DHT22;7123;49.468;10.992;2023-07-31T04:00:15;18.80;99.90
14093;DHT22;7123;49.468;10.992;2023-07-31T04:02:42;18.80;99.90
14093;DHT22;7123;49.468;10.992;2023-07-31T04:05:08;18.90;99.90
14093;DHT22;7123;49.468;10.992;2023-07-31T04:07:36;18.90;99.90
14093;DHT22;7123;49.468;10.992;2023-07-31T04:10:03;18.90;99.90
14093;DHT22;7123;49.468;10.992;2023-07-31T04:12:30;18.80;99.90
14093;DHT22;7123;49.468;10.992;2023-07-31T04:14:57;18.80;99.90
14093;DHT22;7123;49.468;10.992;2023-07-31T04:17:23;18.70;99.90
14093;DHT22;7123;49.468;10.992;2023-07-31T04:19:50;18.70;99.90
14093;DHT22;7123;49.468;10.992;2023-07-31T04:22:17;18.70;99.90
14093;DHT22;7123;49.468;10.992;2023-07-31T04:24:44;18.80;99.90
14093;DHT22;7123;49.468;10.992;2023-07-31T04:27:10;18.70;99.90
14093;DHT22;7123;49.468;10.992;2023-07-31T04:29:37;18.70;99.90
14093;DHT22;7123;49.468;10.992;2023-07-31T04:32:08;18.70;99.90
14093;DHT22;7123;49.468;10.992;2023-07-31T04:34:35;18.70;99.90
14093;DHT22;7123;49.468;10.992;2023-07-31T04:37:01;18.70;99.90
14093;DHT22;7123;49.468;10.992;2023-07-31T04:39:28;18.70;99.90
14093;DHT22;7123;49.468;10.992;2023-07-31T04:41:55;18.70;99.90
14093;DHT22;7123;49.468;10.992;2023-07-31T04:44:22;18.70;99.90
14093;DHT22;7123;49.468;10.992;2023-07-31T04:46:48;18.80;99.90
14093;DHT22;7123;49.468;10.992;2023-07-31T04:49:15;18.80;99.90
14093;DHT22;7123;49.468;10.992;2023-07-31T04:51:42;18.80;99.90
14093;DHT22;7123;49.468;10.992;2023-07-31T04:54:08;18.90;99.90
14093;DHT22;7123;49.468;10.992;2023-07-31T04:56:35;18.80;99.90
14093;DHT22;7123;49.468;10.992;2023-07-31T04:59:02;18.90;99.90
14093;DHT22;7123;49.468;10.992;2023-07-31T05:01:29;18.90;99.90
14093;DHT22;7123;49.468;10.992;2023-07-31T05:03:56;18.90;99.90
14093;DHT22;7123;49.468;10.992;2023-07-31T05:06:23;19.00;99.90
14093;DHT22;7123;49.468;10.992;2023-07-31T05:08:49;19.00;99.90
14093;DHT22;7123;49.468;10.992;2023-07-31T05:11:16;19.10;99.90
14093;DHT22;7123;49.468;10.992;2023-07-31T05:13:43;19.10;99.90
14093;DHT22;7123;49.468;10.992;2023-07-31T05:16:09;19.10;99.90
14093;DHT22;7123;49.468;10.992;2023-07-31T05:18:36;19.20;99.90
14093;DHT22;7123;49.468;10.992;2023-07-31T05:21:03;19.20;99.90
14093;DHT22;7123;49.468;10.992;2023-07-31T05:23:30;19.10;99.90
14093;DHT22;7123;49.468;10.992;2023-07-31T05:26:06;19.30;99.90
14093;DHT22;7123;49.468;10.992;2023-07-31T05:28:34;19.20;99.90
14093;DHT22;7123;49.468;10.992;2023-07-31T05:31:03;19.20;99.90
14093;DHT22;7123;49.468;10.992;2023-07-31T05:33:31;19.10;99.90
14093;DHT22;7123;49.468;10.992;2023-07-31T05:35:58;19.10;99.90
14093;DHT22;7123;49.468;10.992;2023-07-31T05:38:25;19.10;99.90
14093;DHT22;7123;49.468;10.992;2023-07-31T05:40:51;19.10;99.90
14093;DHT22;7123;49.468;10.992;2023-07-31T05:43:19;19.00;99.90
14093;DHT22;7123;49.468;10.992;2023-07-31T05:45:47;18.90;99.90
14093;DHT22;7123;49.468;10.992;2023-07-31T05:48:14;18.80;99.90
14093;DHT22;7123;49.468;10.992;2023-07-31T05:50:41;18.70;99.90
14093;DHT22;7123;49.468;10.992;2023-07-31T05:53:09;18.60;99.90
14093;DHT22;7123;49.468;10.992;2023-07-31T05:55:36;18.40;99.90
14093;DHT22;7123;49.468;10.992;2023-07-31T05:58:03;18.30;99.90
14093;DHT22;7123;49.468;10.992;2023-07-31T06:00:30;18.40;99.90
14093;DHT22;7123;49.468;10.992;2023-07-31T06:02:57;18.50;99.90
14093;DHT22;7123;49.468;10.992;2023-07-31T06:05:24;18.60;99.90
14093;DHT22;7123;49.468;10.992;2023-07-31T06:07:51;18.60;99.90
14093;DHT22;7123;49.468;10.992;2023-07-31T06:10:18;18.70;99.90
14093;DHT22;7123;49.468;10.992;2023-07-31T06:12:45;18.80;99.90
14093;DHT22;7123;49.468;10.992;2023-07-31T06:15:12;18.90;99.90
14093;DHT22;7123;49.468;10.992;2023-07-31T06:17:38;19.00;99.90
14093;DHT22;7123;49.468;10.992;2023-07-31T06:20:06;19.00;99.90
14093;DHT22;7123;49.468;10.992;2023-07-31T06:22:33;19.00;99.90
14093;DHT22;7123;49.468;10.992;2023-07-31T06:25:00;18.80;99.90
14093;DHT22;7123;49.468;10.992;2023-07-31T06:27:27;18.80;99.90
14093;DHT22;7123;49.468;10.992;2023-07-31T06:29:54;18.60;99.90
14093;DHT22;7123;49.468;10.992;2023-07-31T06:32:20;18.60;99.90
14093;DHT22;7123;49.468;10.992;2023-07-31T06:34:47;18.50;99.90
14093;DHT22;7123;49.468;10.992;2023-07-31T06:37:14;18.50;99.90
14093;DHT22;7123;49.468;10.992;2023-07-31T06:39:40;18.40;99.90
14093;DHT22;7123;49.468;10.992;2023-07-31T06:42:07;18.40;99.90
14093;DHT22;7123;49.468;10.992;2023-07-31T06:44:34;18.50;99.90
14093;DHT22;7123;49.468;10.992;2023-07-31T06:47:01;18.70;99.90
14093;DHT22;7123;49.468;10.992;2023-07-31T06:49:27;18.70;99.90
14093;DHT22;7123;49.468;10.992;2023-07-31T06:51:54;18.90;99.90
14093;DHT22;7123;49.468;10.992;2023-07-31T06:54:21;19.00;99.90
14093;DHT22;7123;49.468;10.992;2023-07-31T06:56:48;19.00;99.90
14093;DHT22;7123;49.468;10.992;2023-07-31T06:59:14;18.90;99.90
14093;DHT22;7123;49.468;10.992;2023-07-31T07:01:41;18.90;99.90
14093;DHT22;7123;49.468;10.992;2023-07-31T07:04:08;18.90;99.90
14093;DHT22;7123;49.468;10.992;2023-07-31T07:06:34;19.00;99.90
14093;DHT22;7123;49.468;10.992;2023-07-31T07:09:01;19.00;99.90
14093;DHT22;7123;49.468;10.992;2023-07-31T07:11:28;19.10;99.90
14093;DHT22;7123;49.468;10.992;2023-07-31T07:13:55;19.00;99.90
14093;DHT22;7123;49.468;10.992;2023-07-31T07:16:22;19.00;99.90
14093;DHT22;7123;49.468;10.992;2023-07-31T07:18:48;19.00;99.90
14093;DHT22;7123;49.468;10.992;2023-07-31T07:21:28;19.10;99.90
14093;DHT22;7123;49.468;10.992;2023-07-31T07:23:55;19.00;99.90
14093;DHT22;7123;49.468;10.992;2023-07-31T07:26:21;19.10;99.90
14093;DHT22;7123;49.468;10.992;2023-07-31T07:28:51;19.10;99.90
14093;DHT22;7123;49.468;10.992;2023-07-31T07:31:17;19.10;99.90
14093;DHT22;7123;49.468;10.992;2023-07-31T07:33:44;19.10;99.90
14093;DHT22;7123;49.468;10.992;2023-07-31T07:36:11;19.10;99.90
14093;DHT22;7123;49.468;10.992;2023-07-31T07:38:39;19.10;99.90
14093;DHT22;7123;49.468;10.992;2023-07-31T07:41:07;19.20;99.90
14093;DHT22;7123;49.468;10.992;2023-07-31T07:43:34;19.20;99.90
14093;DHT22;7123;49.468;10.992;2023-07-31T07:46:01;19.10;99.90
14093;DHT22;7123;49.468;10.992;2023-07-31T07:48:28;19.20;99.90
14093;DHT22;7123;49.468;10.992;2023-07-31T07:50:54;19.20;99.90
14093;DHT22;7123;49.468;10.992;2023-07-31T07:53:21;19.20;99.90
14093;DHT22;7123;49.468;10.992;2023-07-31T07:55:48;19.20;99.90
14093;DHT22;7123;49.468;10.992;2023-07-31T07:58:15;19.20;99.90
14093;DHT22;7123;49.468;10.992;2023-07-31T08:00:41;19.10;99.90
14093;DHT22;7123;49.468;10.992;2023-07-31T08:03:08;19.20;99.90
14093;DHT22;7123;49.468;10.992;2023-07-31T08:05:36;19.20;99.90
14093;DHT22;7123;49.468;10.992;2023-07-31T08:08:03;19.10;99.90
14093;DHT22;7123;49.468;10.992;2023-07-31T08:10:30;19.20;99.90
14093;DHT22;7123;49.468;10.992;2023-07-31T08:12:56;19.20;99.90
14093;DHT22;7123;49.468;10.992;2023-07-31T08:15:23;19.30;99.90
14093;DHT22;7123;49.468;10.992;2023-07-31T08:17:50;19.40;99.90
14093;DHT22;7123;49.468;10.992;2023-07-31T08:20:17;19.40;99.90
14093;DHT22;7123;49.468;10.992;2023-07-31T08:22:44;19.30;99.90
14093;DHT22;7123;49.468;10.992;2023-07-31T08:25:10;19.30;99.90
14093;DHT22;7123;49.468;10.992;2023-07-31T08:27:37;19.40;99.90
14093;DHT22;7123;49.468;10.992;2023-07-31T08:30:05;19.50;99.90
14093;DHT22;7123;49.468;10.992;2023-07-31T08:32:31;19.50;99.90
14093;DHT22;7123;49.468;10.992;2023-07-31T08:34:58;19.50;99.90
14093;DHT22;7123;49.468;10.992;2023-07-31T08:37:25;19.60;99.90
14093;DHT22;7123;49.468;10.992;2023-07-31T08:39:52;19.80;99.90
14093;DHT22;7123;49.468;10.992;2023-07-31T08:42:18;19.80;99.90
14093;DHT22;7123;49.468;10.992;2023-07-31T08:44:46;19.70;99.90
14093;DHT22;7123;49.468;10.992;2023-07-31T08:47:14;19.60;99.90
14093;DHT22;7123;49.468;10.992;2023-07-31T08:49:42;19.70;99.90
14093;DHT22;7123;49.468;10.992;2023-07-31T08:52:10;19.90;99.90
14093;DHT22;7123;49.468;10.992;2023-07-31T08:54:37;20.00;99.90
14093;DHT22;7123;49.468;10.992;2023-07-31T08:57:05;20.00;99.90
14093;DHT22;7123;49.468;10.992;2023-07-31T08:59:34;20.10;99.90
14093;DHT22;7123;49.468;10.992;2023-07-31T09:02:06;20.20;99.90
14093;DHT22;7123;49.468;10.992;2023-07-31T09:04:34;20.30;99.90
14093;DHT22;7123;49.468;10.992;2023-07-31T09:07:03;20.30;99.90
14093;DHT22;7123;49.468;10.992;2023-07-31T09:09:31;20.20;99.90
14093;DHT22;7123;49.468;10.992;2023-07-31T09:11:58;20.30;99.90
14093;DHT22;7123;49.468;10.992;2023-07-31T09:14:26;20.30;99.90
14093;DHT22;7123;49.468;10.992;2023-07-31T09:16:55;20.40;99.90
14093;DHT22;7123;49.468;10.992;2023-07-31T09:19:35;20.50;99.90
14093;DHT22;7123;49.468;10.992;2023-07-31T09:22:05;20.60;99.90
14093;DHT22;7123;49.468;10.992;2023-07-31T09:24:33;20.60;99.90
14093;DHT22;7123;49.468;10.992;2023-07-31T09:27:01;20.70;99.90
14093;DHT22;7123;49.468;10.992;2023-07-31T09:29:29;20.40;99.90
14093;DHT22;7123;49.468;10.992;2023-07-31T09:31:59;20.60;99.90
14093;DHT22;7123;49.468;10.992;2023-07-31T09:34:37;20.70;99.90
14093;DHT22;7123;49.468;10.992;2023-07-31T09:37:06;20.70;99.90
14093;DHT22;7123;49.468;10.992;2023-07-31T09:39:33;20.80;99.90
14093;DHT22;7123;49.468;10.992;2023-07-31T09:42:11;20.70;99.90
14093;DHT22;7123;49.468;10.992;2023-07-31T09:44:39;20.80;99.90
14093;DHT22;7123;49.468;10.992;2023-07-31T09:47:20;20.90;99.90
14093;DHT22;7123;49.468;10.992;2023-07-31T09:49:47;21.00;99.90
14093;DHT22;7123;49.468;10.992;2023-07-31T09:52:14;21.00;99.90
14093;DHT22;7123;49.468;10.992;2023-07-31T09:54:41;20.80;99.90
14093;DHT22;7123;49.468;10.992;2023-07-31T09:57:08;20.90;99.90
14093;DHT22;7123;49.468;10.992;2023-07-31T09:59:36;20.90;99.90
14093;DHT22;7123;49.468;10.992;2023-07-31T10:02:03;20.90;99.90
14093;DHT22;7123;49.468;10.992;2023-07-31T10:04:30;20.90;99.90
14093;DHT22;7123;49.468;10.992;2023-07-31T10:06:58;20.90;99.90
14093;DHT22;7123;49.468;10.992;2023-07-31T10:09:26;20.90;99.90
14093;DHT22;7123;49.468;10.992;2023-07-31T10:12:00;20.90;99.90
14093;DHT22;7123;49.468;10.992;2023-07-31T10:14:30;21.00;99.90
14093;DHT22;7123;49.468;10.992;2023-07-31T10:16:58;21.00;99.90
14093;DHT22;7123;49.468;10.992;2023-07-31T10:19:26;20.90;99.90
14093;DHT22;7123;49.468;10.992;2023-07-31T10:21:53;20.90;99.90
14093;DHT22;7123;49.468;10.992;2023-07-31T10:24:24;20.90;99.90
14093;DHT22;7123;49.468;10.992;2023-07-31T10:26:52;20.90;99.90
14093;DHT22;7123;49.468;10.992;2023-07-31T10:29:20;21.00;99.90
14093;DHT22;7123;49.468;10.992;2023-07-31T10:31:48;21.10;99.90
14093;DHT22;7123;49.468;10.992;2023-07-31T10:34:15;21.30;99.90
14093;DHT22;7123;49.468;10.992;2023-07-31T10:36:42;21.40;99.90
14093;DHT22;7123;49.468;10.992;2023-07-31T10:39:36;21.50;99.90
14093;DHT22;7123;49.468;10.992;2023-07-31T10:42:12;21.50;99.90
14093;DHT22;7123;49.468;10.992;2023-07-31T10:44:44;21.50;99.90
14093;DHT22;7123;49.468;10.992;2023-07-31T10:47:15;21.30;99.90
14093;DHT22;7123;49.468;10.992;2023-07-31T10:49:45;21.30;99.90
14093;DHT22;7123;49.468;10.992;2023-07-31T10:52:13;21.40;99.90
14093;DHT22;7123;49.468;10.992;2023-07-31T10:54:40;21.50;99.90
14093;DHT22;7123;49.468;10.992;2023-07-31T10:57:25;21.60;99.90
14093;DHT22;7123;49.468;10.992;2023-07-31T11:05:53;21.80;99.90
14093;DHT22;7123;49.468;10.992;2023-07-31T11:08:23;21.80;99.90
14093;DHT22;7123;49.468;10.992;2023-07-31T11:11:05;21.80;99.90
14093;DHT22;7123;49.468;10.992;2023-07-31T11:16:01;21.70;99.90
14093;DHT22;7123;49.468;10.992;2023-07-31T11:18:27;21.70;99.90
14093;DHT22;7123;49.468;10.992;2023-07-31T11:20:55;21.70;99.90
14093;DHT22;7123;49.468;10.992;2023-07-31T11:23:23;21.70;99.90
14093;DHT22;7123;49.468;10.992;2023-07-31T11:25:50;21.70;99.90
14093;DHT22;7123;49.468;10.992;2023-07-31T11:28:18;21.70;99.90
14093;DHT22;7123;49.468;10.992;2023-07-31T11:30:46;21.80;99.90
14093;DHT22;7123;49.468;10.992;2023-07-31T11:33:14;21.80;99.90
14093;DHT22;7123;49.468;10.992;2023-07-31T11:35:46;21.80;99.90
14093;DHT22;7123;49.468;10.992;2023-07-31T11:38:22;21.70;99.90
14093;DHT22;7123;49.468;10.992;2023-07-31T11:40:53;21.70;99.90
14093;DHT22;7123;49.468;10.992;2023-07-31T11:43:21;21.70;99.90
14093;DHT22;7123;49.468;10.992;2023-07-31T11:45:52;21.70;99.90
14093;DHT22;7123;49.468;10.992;2023-07-31T11:50:51;21.80;99.90
14093;DHT22;7123;49.468;10.992;2023-07-31T11:53:22;21.80;99.90
14093;DHT22;7123;49.468;10.992;2023-07-31T11:55:50;21.70;99.90
14093;DHT22;7123;49.468;10.992;2023-07-31T11:58:17;21.60;99.90
14093;DHT22;7123;49.468;10.992;2023-07-31T12:00:45;21.60;99.90
14093;DHT22;7123;49.468;10.992;2023-07-31T12:03:12;21.70;99.90
14093;DHT22;7123;49.468;10.992;2023-07-31T12:05:39;21.70;99.90
14093;DHT22;7123;49.468;10.992;2023-07-31T12:08:10;21.70;99.90
14093;DHT22;7123;49.468;10.992;2023-07-31T12:10:38;21.70;99.90
14093;DHT22;7123;49.468;10.992;2023-07-31T12:13:12;21.80;99.90
14093;DHT22;7123;49.468;10.992;2023-07-31T12:15:46;21.80;99.90
14093;DHT22;7123;49.468;10.992;2023-07-31T12:18:14;21.90;99.90
14093;DHT22;7123;49.468;10.992;2023-07-31T12:20:47;21.90;99.90
14093;DHT22;7123;49.468;10.992;2023-07-31T12:23:20;21.90;99.90
14093;DHT22;7123;49.468;10.992;2023-07-31T12:28:28;21.90;99.90
14093;DHT22;7123;49.468;10.992;2023-07-31T12:30:59;21.90;99.90
14093;DHT22;7123;49.468;10.992;2023-07-31T12:33:37;22.00;99.90
14093;DHT22;7123;49.468;10.992;2023-07-31T12:36:14;22.00;99.90
14093;DHT22;7123;49.468;10.992;2023-07-31T12:38:42;22.00;99.90
14093;DHT22;7123;49.468;10.992;2023-07-31T12:41:09;22.00;99.90
14093;DHT22;7123;49.468;10.992;2023-07-31T12:43:36;21.90;99.90
14093;DHT22;7123;49.468;10.992;2023-07-31T12:46:04;22.00;99.90
14093;DHT22;7123;49.468;10.992;2023-07-31T12:48:31;21.90;99.90
14093;DHT22;7123;49.468;10.992;2023-07-31T12:50:58;21.90;99.90
14093;DHT22;7123;49.468;10.992;2023-07-31T12:53:25;22.00;99.90
14093;DHT22;7123;49.468;10.992;2023-07-31T12:55:52;22.00;99.90
14093;DHT22;7123;49.468;10.992;2023-07-31T12:58:19;22.10;99.90
14093;DHT22;7123;49.468;10.992;2023-07-31T13:00:45;22.00;99.90
14093;DHT22;7123;49.468;10.992;2023-07-31T13:03:12;21.90;99.90
14093;DHT22;7123;49.468;10.992;2023-07-31T13:05:39;21.90;99.90
14093;DHT22;7123;49.468;10.992;2023-07-31T13:08:06;21.90;99.90
14093;DHT22;7123;49.468;10.992;2023-07-31T13:10:34;22.00;99.90
14093;DHT22;7123;49.468;10.992;2023-07-31T13:13:01;22.00;99.90
14093;DHT22;7123;49.468;10.992;2023-07-31T13:15:28;22.00;99.90
14093;DHT22;7123;49.468;10.992;2023-07-31T13:17:55;22.20;99.90
14093;DHT22;7123;49.468;10.992;2023-07-31T13:20:22;22.30;99.90
14093;DHT22;7123;49.468;10.992;2023-07-31T13:22:49;22.40;99.90
14093;DHT22;7123;49.468;10.992;2023-07-31T13:25:15;22.60;99.90
14093;DHT22;7123;49.468;10.992;2023-07-31T13:27:42;22.80;99.90
14093;DHT22;7123;49.468;10.992;2023-07-31T13:30:09;22.90;99.90
14093;DHT22;7123;49.468;10.992;2023-07-31T13:32:35;22.90;99.90
14093;DHT22;7123;49.468;10.992;2023-07-31T13:35:06;22.90;99.90
14093;DHT22;7123;49.468;10.992;2023-07-31T13:37:34;23.00;99.90
14093;DHT22;7123;49.468;10.992;2023-07-31T13:40:01;22.90;99.90
14093;DHT22;7123;49.468;10.992;2023-07-31T13:42:29;23.00;99.90
14093;DHT22;7123;49.468;10.992;2023-07-31T13:44:56;23.10;99.90
14093;DHT22;7123;49.468;10.992;2023-07-31T13:47:23;23.20;99.90
14093;DHT22;7123;49.468;10.992;2023-07-31T13:49:50;23.00;99.90
14093;DHT22;7123;49.468;10.992;2023-07-31T13:52:16;22.90;99.90
14093;DHT22;7123;49.468;10.992;2023-07-31T13:54:43;22.80;99.90
14093;DHT22;7123;49.468;10.992;2023-07-31T13:57:10;22.80;99.90
14093;DHT22;7123;49.468;10.992;2023-07-31T13:59:37;22.90;99.90
14093;DHT22;7123;49.468;10.992;2023-07-31T14:02:04;23.00;99.90
14093;DHT22;7123;49.468;10.992;2023-07-31T14:04:31;23.10;99.90
14093;DHT22;7123;49.468;10.992;2023-07-31T14:06:58;22.90;99.90
14093;DHT22;7123;49.468;10.992;2023-07-31T14:09:26;22.90;99.90
14093;DHT22;7123;49.468;10.992;2023-07-31T14:11:55;22.90;99.90
14093;DHT22;7123;49.468;10.992;2023-07-31T14:14:21;23.00;99.90
14093;DHT22;7123;49.468;10.992;2023-07-31T14:16:48;23.00;99.90
14093;DHT22;7123;49.468;10.992;2023-07-31T14:19:15;23.20;99.90
14093;DHT22;7123;49.468;10.992;2023-07-31T14:21:43;23.20;99.90
14093;DHT22;7123;49.468;10.992;2023-07-31T14:24:23;23.30;99.90
14093;DHT22;7123;49.468;10.992;2023-07-31T14:26:49;23.20;99.90
14093;DHT22;7123;49.468;10.992;2023-07-31T14:29:16;23.20;99.90
14093;DHT22;7123;49.468;10.992;2023-07-31T14:31:43;23.20;99.90
14093;DHT22;7123;49.468;10.992;2023-07-31T14:34:10;23.10;99.90
14093;DHT22;7123;49.468;10.992;2023-07-31T14:36:36;23.10;99.90
14093;DHT22;7123;49.468;10.992;2023-07-31T14:39:04;23.10;99.90
14093;DHT22;7123;49.468;10.992;2023-07-31T14:41:31;23.10;99.90
14093;DHT22;7123;49.468;10.992;2023-07-31T14:43:57;23.10;99.90
14093;DHT22;7123;49.468;10.992;2023-07-31T14:46:24;23.10;99.90
14093;DHT22;7123;49.468;10.992;2023-07-31T14:48:51;23.00;99.90
14093;DHT22;7123;49.468;10.992;2023-07-31T14:51:18;23.00;99.90
14093;DHT22;7123;49.468;10.992;2023-07-31T14:53:45;22.70;99.90
14093;DHT22;7123;49.468;10.992;2023-07-31T14:56:13;22.70;99.90
14093;DHT22;7123;49.468;10.992;2023-07-31T14:58:40;22.60;99.90
14093;DHT22;7123;49.468;10.992;2023-07-31T15:01:07;22.60;99.90
14093;DHT22;7123;49.468;10.992;2023-07-31T15:03:33;22.70;99.90
14093;DHT22;7123;49.468;10.992;2023-07-31T15:06:00;22.60;99.90
14093;DHT22;7123;49.468;10.992;2023-07-31T15:08:27;22.60;99.90
14093;DHT22;7123;49.468;10.992;2023-07-31T15:10:54;22.50;99.90
14093;DHT22;7123;49.468;10.992;2023-07-31T15:13:24;22.50;99.90
14093;DHT22;7123;49.468;10.992;2023-07-31T15:15:51;22.50;99.90
14093;DHT22;7123;49.468;10.992;2023-07-31T15:18:18;22.50;99.90
14093;DHT22;7123;49.468;10.992;2023-07-31T15:20:45;22.60;99.90
14093;DHT22;7123;49.468;10.992;2023-07-31T15:23:11;22.60;99.90
14093;DHT22;7123;49.468;10.992;2023-07-31T15:25:38;22.60;99.90
14093;DHT22;7123;49.468;10.992;2023-07-31T15:28:05;22.60;99.90
14093;DHT22;7123;49.468;10.992;2023-07-31T15:30:33;22.60;99.90
14093;DHT22;7123;49.468;10.992;2023-07-31T15:33:01;22.60;99.90
14093;DHT22;7123;49.468;10.992;2023-07-31T15:35:28;22.60;99.90
14093;DHT22;7123;49.468;10.992;2023-07-31T15:37:55;22.50;99.90
14093;DHT22;7123;49.468;10.992;2023-07-31T15:40:22;22.60;99.90
14093;DHT22;7123;49.468;10.992;2023-07-31T15:42:48;22.60;99.90
14093;DHT22;7123;49.468;10.992;2023-07-31T15:45:15;22.50;99.90
14093;DHT22;7123;49.468;10.992;2023-07-31T15:47:42;22.50;99.90
14093;DHT22;7123;49.468;10.992;2023-07-31T15:50:09;22.60;99.90
14093;DHT22;7123;49.468;10.992;2023-07-31T15:52:36;22.60;99.90